createdAt,value
2019-02-06T00:01:20.935Z,6.00
2019-02-06T00:04:32.104Z,6.10
2019-02-06T00:07:43.301Z,6.00
2019-02-06T00:08:48.711Z,6.10
2019-02-06T00:10:56.519Z,6.10
2019-02-06T00:18:28.305Z,6.00
2019-02-06T00:20:36.071Z,6.00
2019-02-06T00:21:40.299Z,6.00
2019-02-06T00:24:51.281Z,6.00
2019-02-06T00:25:55.878Z,6.00
2019-02-06T00:28:03.585Z,5.80
2019-02-06T00:29:07.969Z,5.80
2019-02-06T00:31:18.548Z,5.80
2019-02-06T00:32:22.958Z,5.90
2019-02-06T00:34:30.757Z,5.80
2019-02-06T00:35:35.273Z,5.70
2019-02-06T00:36:39.558Z,5.90
2019-02-06T00:37:44.071Z,5.90
2019-02-06T00:39:51.558Z,6.00
2019-02-06T00:43:02.955Z,5.70
2019-02-06T00:46:15.169Z,5.90
2019-02-06T00:48:23.526Z,6.00
2019-02-06T00:50:31.373Z,5.70
2019-02-06T00:51:35.865Z,6.00
2019-02-06T00:52:40.289Z,6.00
2019-02-06T00:53:44.795Z,5.80
2019-02-06T00:54:48.943Z,5.80
2019-02-06T00:55:53.420Z,5.70
2019-02-06T00:58:01.491Z,5.70
2019-02-06T01:00:14.383Z,5.80
2019-02-06T01:01:18.929Z,5.90
2019-02-06T01:03:26.417Z,5.70
2019-02-06T01:04:30.725Z,5.80
2019-02-06T01:05:38.547Z,5.80
2019-02-06T01:08:47.719Z,5.80
2019-02-06T01:13:02.339Z,5.80
2019-02-06T01:15:11.032Z,5.80
2019-02-06T01:17:18.535Z,5.80
2019-02-06T01:19:27.440Z,5.80
2019-02-06T01:22:38.334Z,5.70
2019-02-06T01:24:45.915Z,5.80
2019-02-06T01:26:53.821Z,5.90
2019-02-06T01:27:58.212Z,5.80
2019-02-06T01:32:21.905Z,5.60
2019-02-06T01:35:33.089Z,5.80
2019-02-06T01:36:38.261Z,6.00
2019-02-06T01:39:49.191Z,5.80
2019-02-06T01:40:53.399Z,5.70
2019-02-06T01:43:01.451Z,5.90
2019-02-06T01:45:11.914Z,6.00
2019-02-06T01:46:16.293Z,5.90
2019-02-06T01:47:20.772Z,5.90
2019-02-06T01:48:25.179Z,6.00
2019-02-06T01:52:39.692Z,5.90
2019-02-06T01:53:44.162Z,5.80
2019-02-06T01:54:48.567Z,5.80
2019-02-06T01:56:56.323Z,6.00
2019-02-06T01:58:01.177Z,5.80
2019-02-06T01:59:05.574Z,5.80
2019-02-06T02:00:21.443Z,5.70
2019-02-06T02:09:55.306Z,5.80
2019-02-06T02:13:06.196Z,5.90
2019-02-06T02:15:16.296Z,5.90
2019-02-06T02:16:20.747Z,5.90
2019-02-06T02:18:28.515Z,5.90
2019-02-06T02:21:39.652Z,5.70
2019-02-06T02:24:50.796Z,5.80
2019-02-06T02:26:58.568Z,5.80
2019-02-06T02:28:03.072Z,6.00
2019-02-06T02:30:14.067Z,5.80
2019-02-06T02:31:18.217Z,5.90
2019-02-06T02:34:29.145Z,5.70
2019-02-06T02:35:33.667Z,6.00
2019-02-06T02:36:38.054Z,5.90
2019-02-06T02:37:42.228Z,5.90
2019-02-06T02:39:50.351Z,6.00
2019-02-06T02:41:57.881Z,5.90
2019-02-06T02:43:02.294Z,5.80
2019-02-06T02:45:12.948Z,6.10
2019-02-06T02:49:27.521Z,5.80
2019-02-06T02:50:31.919Z,6.00
2019-02-06T02:53:42.897Z,6.00
2019-02-06T02:55:50.780Z,5.90
2019-02-06T02:56:55.209Z,6.00
2019-02-06T02:59:02.803Z,5.90
2019-02-06T03:01:17.368Z,5.80
2019-02-06T03:02:21.760Z,5.80
2019-02-06T03:03:25.959Z,5.80
2019-02-06T03:05:33.765Z,5.70
2019-02-06T03:08:44.737Z,6.00
2019-02-06T03:11:55.707Z,5.90
2019-02-06T03:13:00.121Z,5.80
2019-02-06T03:14:04.634Z,5.80
2019-02-06T03:16:13.039Z,5.70
2019-02-06T03:18:20.636Z,5.70
2019-02-06T03:19:25.025Z,5.70
2019-02-06T03:21:33.661Z,6.10
2019-02-06T03:25:48.224Z,6.10
2019-02-06T03:26:52.398Z,5.90
2019-02-06T03:27:56.784Z,5.90
2019-02-06T03:32:16.730Z,6.10
2019-02-06T03:35:28.833Z,6.10
2019-02-06T03:37:36.593Z,6.00
2019-02-06T03:38:40.829Z,5.80
2019-02-06T03:39:45.242Z,5.70
2019-02-06T03:40:49.643Z,6.00
2019-02-06T03:42:57.167Z,6.00
2019-02-06T03:45:07.912Z,6.00
2019-02-06T03:46:12.511Z,6.10
2019-02-06T03:49:23.653Z,5.90
2019-02-06T03:50:28.053Z,6.10
2019-02-06T03:51:32.203Z,6.00
2019-02-06T03:58:57.960Z,5.90
2019-02-06T04:01:07.800Z,5.90
2019-02-06T04:02:11.957Z,5.90
2019-02-06T04:03:16.213Z,5.80
2019-02-06T04:05:23.731Z,6.00
2019-02-06T04:06:27.906Z,6.10
2019-02-06T04:07:32.312Z,6.10
2019-02-06T04:10:43.501Z,5.80
2019-02-06T04:11:47.702Z,6.00
2019-02-06T04:13:55.488Z,5.90
2019-02-06T04:15:00.194Z,6.00
2019-02-06T04:16:04.882Z,6.10
2019-02-06T04:17:09.123Z,5.80
2019-02-06T04:18:13.537Z,5.90
2019-02-06T04:20:21.337Z,6.10
2019-02-06T04:22:28.865Z,6.10
2019-02-06T04:27:46.767Z,6.10
2019-02-06T04:29:54.297Z,6.00
2019-02-06T04:30:58.449Z,6.00
2019-02-06T04:33:06.214Z,6.10
2019-02-06T04:34:10.676Z,6.10
2019-02-06T04:35:15.295Z,5.90
2019-02-06T04:38:27.492Z,5.90
2019-02-06T04:40:35.793Z,5.90
2019-02-06T04:41:40.206Z,5.90
2019-02-06T04:42:44.613Z,6.00
2019-02-06T04:43:48.814Z,6.00
2019-02-06T04:44:53.436Z,5.80
2019-02-06T04:47:01.545Z,5.90
2019-02-06T04:48:05.828Z,5.90
2019-02-06T04:49:09.939Z,6.00
2019-02-06T04:51:18.556Z,6.10
2019-02-06T04:52:22.939Z,6.00
2019-02-06T04:53:27.371Z,6.10
2019-02-06T04:54:31.581Z,6.10
2019-02-06T04:56:39.177Z,6.10
2019-02-06T04:58:46.770Z,6.10
2019-02-06T04:59:51.477Z,6.00
2019-02-06T05:00:56.094Z,5.80
2019-02-06T05:02:00.256Z,5.80
2019-02-06T05:03:04.693Z,5.80
2019-02-06T05:04:08.795Z,5.90
2019-02-06T05:08:23.371Z,6.10
2019-02-06T05:09:27.673Z,6.00
2019-02-06T05:12:38.863Z,5.90
2019-02-06T05:14:46.869Z,6.00
2019-02-06T05:15:51.279Z,5.90
2019-02-06T05:20:25.195Z,6.00
2019-02-06T05:21:29.340Z,5.90
2019-02-06T05:22:33.751Z,6.20
2019-02-06T05:28:55.003Z,5.80
2019-02-06T05:29:59.392Z,6.10
2019-02-06T05:31:03.863Z,5.90
2019-02-06T05:32:08.544Z,6.20
2019-02-06T05:33:13.230Z,5.90
2019-02-06T05:35:21.092Z,6.00
2019-02-06T05:38:31.981Z,5.80
2019-02-06T05:39:36.378Z,6.10
2019-02-06T05:41:44.195Z,6.00
2019-02-06T05:44:55.355Z,5.90
2019-02-06T05:50:16.173Z,5.90
2019-02-06T05:53:27.359Z,6.00
2019-02-06T05:56:38.500Z,5.90
2019-02-06T05:58:46.244Z,5.80
2019-02-06T05:59:50.945Z,5.70
2019-02-06T06:00:55.639Z,6.00
2019-02-06T06:04:06.781Z,5.80
2019-02-06T06:05:10.941Z,6.00
2019-02-06T06:07:18.531Z,5.90
2019-02-06T06:09:26.325Z,6.00
2019-02-06T06:12:37.471Z,5.80
2019-02-06T06:13:42.076Z,5.70
2019-02-06T06:14:46.851Z,6.00
2019-02-06T06:16:54.628Z,6.00
2019-02-06T06:20:08.693Z,6.00
2019-02-06T06:21:12.896Z,5.90
2019-02-06T06:24:23.786Z,5.90
2019-02-06T06:25:28.170Z,5.90
2019-02-06T06:29:42.532Z,6.00
2019-02-06T06:30:47.366Z,6.10
2019-02-06T06:31:51.952Z,5.80
2019-02-06T06:32:56.349Z,5.90
2019-02-06T06:34:00.580Z,5.90
2019-02-06T06:35:07.853Z,5.80
2019-02-06T06:36:12.025Z,5.70
2019-02-06T06:37:16.481Z,5.90
2019-02-06T06:38:21.883Z,5.90
2019-02-06T06:39:26.279Z,5.80
2019-02-06T06:40:30.682Z,5.80
2019-02-06T06:44:45.214Z,6.10
2019-02-06T06:45:49.619Z,5.80
2019-02-06T06:49:00.563Z,6.00
2019-02-06T06:50:09.059Z,5.90
2019-02-06T06:51:13.485Z,6.10
2019-02-06T06:52:17.910Z,6.00
2019-02-06T06:54:27.606Z,5.70
2019-02-06T06:55:35.053Z,5.80
2019-02-06T06:59:48.515Z,5.70
2019-02-06T07:00:53.457Z,5.70
2019-02-06T07:01:57.843Z,5.90
2019-02-06T07:04:05.793Z,5.80
2019-02-06T07:06:15.777Z,5.70
2019-02-06T07:07:20.172Z,5.80
2019-02-06T07:08:24.556Z,6.00
2019-02-06T07:11:36.713Z,5.80
2019-02-06T07:13:44.244Z,5.90
2019-02-06T07:14:48.652Z,5.80
2019-02-06T07:15:53.407Z,6.00
2019-02-06T07:21:14.711Z,5.90
2019-02-06T07:25:29.259Z,5.80
2019-02-06T07:26:34.084Z,5.80
2019-02-06T07:29:45.380Z,5.90
2019-02-06T07:30:50.081Z,6.00
2019-02-06T07:35:05.348Z,5.90
2019-02-06T07:36:09.768Z,5.70
2019-02-06T07:38:24.478Z,5.90
2019-02-06T07:43:37.986Z,5.80
2019-02-06T07:47:52.333Z,5.80
2019-02-06T07:48:56.735Z,6.00
2019-02-06T07:50:01.359Z,5.80
2019-02-06T07:55:22.191Z,6.00
2019-02-06T07:56:26.593Z,5.90
2019-02-06T07:57:30.994Z,5.80
2019-02-06T07:59:38.763Z,6.10
2019-02-06T08:01:46.853Z,6.00
2019-02-06T08:02:51.618Z,6.00
2019-02-06T08:06:02.674Z,5.80
2019-02-06T08:07:06.803Z,5.90
2019-02-06T08:08:11.293Z,6.10
2019-02-06T08:10:23.733Z,6.00
2019-02-06T08:12:31.514Z,6.10
2019-02-06T08:13:35.908Z,6.20
2019-02-06T08:16:46.889Z,6.10
2019-02-06T08:17:51.045Z,6.10
2019-02-06T08:19:58.582Z,6.20
2019-02-06T08:21:02.991Z,5.90
2019-02-06T08:23:10.787Z,6.30
2019-02-06T08:24:14.978Z,5.90
2019-02-06T08:25:21.553Z,5.90
2019-02-06T08:26:25.959Z,5.90
2019-02-06T08:27:30.105Z,6.10
2019-02-06T08:29:37.959Z,6.00
2019-02-06T08:31:46.026Z,6.00
2019-02-06T08:32:50.433Z,6.10
2019-02-06T08:34:59.800Z,6.10
2019-02-06T08:40:21.341Z,6.00
2019-02-06T08:43:32.320Z,6.00
2019-02-06T08:47:46.681Z,6.20
2019-02-06T08:49:54.195Z,6.30
2019-02-06T08:52:02.470Z,6.20
2019-02-06T08:53:06.871Z,6.10
2019-02-06T08:55:17.129Z,6.20
2019-02-06T08:56:21.521Z,6.10
2019-02-06T08:57:25.734Z,6.10
2019-02-06T08:59:36.169Z,6.20
2019-02-06T09:00:40.968Z,6.20
2019-02-06T09:03:52.424Z,6.10
2019-02-06T09:07:03.317Z,6.20
2019-02-06T09:10:20.196Z,6.20
2019-02-06T09:11:24.613Z,6.30
2019-02-06T09:12:29.007Z,6.20
2019-02-06T09:13:33.425Z,6.30
2019-02-06T09:14:37.581Z,6.30
2019-02-06T09:15:41.727Z,6.30
2019-02-06T09:16:46.155Z,6.10
2019-02-06T09:17:50.879Z,6.40
2019-02-06T09:23:08.780Z,6.30
2019-02-06T09:26:21.811Z,6.40
2019-02-06T09:27:26.187Z,6.30
2019-02-06T09:28:30.336Z,6.50
2019-02-06T09:29:34.763Z,6.50
2019-02-06T09:30:38.927Z,6.40
2019-02-06T09:31:43.518Z,6.30
2019-02-06T09:34:55.079Z,6.50
2019-02-06T09:37:05.089Z,6.40
2019-02-06T09:38:08.726Z,6.40
2019-02-06T09:39:13.124Z,6.50
2019-02-06T09:40:21.221Z,6.70
2019-02-06T09:41:25.621Z,6.30
2019-02-06T09:42:30.299Z,6.40
2019-02-06T09:45:41.196Z,6.60
2019-02-06T09:47:49.826Z,6.60
2019-02-06T09:49:58.212Z,6.50
2019-02-06T09:52:06.743Z,6.50
2019-02-06T09:54:14.504Z,6.50
2019-02-06T09:57:26.038Z,6.60
2019-02-06T09:58:30.338Z,6.60
2019-02-06T09:59:34.724Z,6.50
2019-02-06T10:02:45.865Z,6.50
2019-02-06T10:03:50.013Z,6.80
2019-02-06T10:04:54.549Z,6.70
2019-02-06T10:05:58.700Z,6.80
2019-02-06T10:07:02.952Z,6.70
2019-02-06T10:09:10.463Z,6.90
2019-02-06T10:10:18.427Z,6.70
2019-02-06T10:12:26.180Z,6.90
2019-02-06T10:17:44.997Z,7.00
2019-02-06T10:21:59.359Z,7.00
2019-02-06T10:24:08.286Z,7.20
2019-02-06T10:27:19.277Z,7.00
2019-02-06T10:28:24.388Z,7.10
2019-02-06T10:29:28.863Z,7.20
2019-02-06T10:31:40.034Z,7.00
2019-02-06T10:32:44.623Z,7.00
2019-02-06T10:36:59.969Z,7.30
2019-02-06T10:38:04.223Z,7.30
2019-02-06T10:39:08.624Z,7.30
2019-02-06T10:42:19.781Z,7.30
2019-02-06T10:43:31.502Z,7.30
2019-02-06T10:47:40.191Z,7.20
2019-02-06T10:49:48.484Z,7.20
2019-02-06T10:50:52.899Z,7.40
2019-02-06T10:51:57.289Z,7.40
2019-02-06T10:53:01.689Z,7.30
2019-02-06T10:58:21.282Z,7.30
2019-02-06T10:59:25.703Z,7.20
2019-02-06T11:00:33.960Z,7.40
2019-02-06T11:02:41.500Z,7.30
2019-02-06T11:04:49.583Z,7.30
2019-02-06T11:06:57.373Z,7.40
2019-02-06T11:09:06.375Z,7.50
2019-02-06T11:12:27.271Z,7.50
2019-02-06T11:16:41.534Z,7.50
2019-02-06T11:18:49.065Z,7.60
2019-02-06T11:19:53.697Z,7.50
2019-02-06T11:23:05.963Z,7.60
2019-02-06T11:28:24.988Z,7.60
2019-02-06T11:29:29.463Z,7.70
2019-02-06T11:36:57.098Z,7.80
2019-02-06T11:41:16.853Z,7.60
2019-02-06T11:42:21.245Z,7.70
2019-02-06T11:44:28.781Z,7.80
2019-02-06T11:46:37.173Z,7.80
2019-02-06T11:47:41.581Z,7.80
2019-02-06T11:49:50.093Z,7.70
2019-02-06T11:50:54.291Z,7.90
2019-02-06T11:53:02.086Z,7.80
2019-02-06T11:56:16.919Z,7.70
2019-02-06T11:58:24.540Z,7.80
2019-02-06T12:01:35.740Z,7.90
2019-02-06T12:02:40.725Z,7.80
2019-02-06T12:04:48.248Z,7.70
2019-02-06T12:05:53.055Z,7.70
2019-02-06T12:08:00.846Z,7.90
2019-02-06T12:11:21.191Z,7.90
2019-02-06T12:14:32.387Z,7.70
2019-02-06T12:16:40.003Z,8.10
2019-02-06T12:17:44.169Z,8.00
2019-02-06T12:18:48.890Z,7.90
2019-02-06T12:21:59.973Z,8.00
2019-02-06T12:23:05.622Z,8.20
2019-02-06T12:26:19.610Z,8.10
2019-02-06T12:30:39.999Z,8.20
2019-02-06T12:32:52.317Z,7.90
2019-02-06T12:34:58.072Z,8.00
2019-02-06T12:36:03.088Z,8.10
2019-02-06T12:37:07.691Z,8.20
2019-02-06T12:38:13.535Z,8.00
2019-02-06T12:42:27.892Z,8.00
2019-02-06T12:43:32.101Z,8.20
2019-02-06T12:44:36.271Z,8.00
2019-02-06T12:47:48.435Z,8.00
2019-02-06T12:48:52.578Z,8.20
2019-02-06T12:49:57.324Z,7.90
2019-02-06T12:54:11.825Z,8.10
2019-02-06T12:55:19.643Z,8.20
2019-02-06T12:56:24.177Z,8.30
2019-02-06T12:57:36.224Z,8.30
2019-02-06T12:58:34.457Z,8.10
2019-02-06T13:03:53.981Z,8.10
2019-02-06T13:04:58.447Z,8.20
2019-02-06T13:06:03.584Z,8.00
2019-02-06T13:11:22.959Z,8.10
2019-02-06T13:14:34.091Z,8.30
2019-02-06T13:17:45.124Z,8.30
2019-02-06T13:21:59.988Z,8.10
2019-02-06T13:24:09.008Z,8.10
2019-02-06T13:26:17.122Z,8.00
2019-02-06T13:27:21.531Z,8.00
2019-02-06T13:29:29.315Z,8.10
2019-02-06T13:30:35.463Z,8.10
2019-02-06T13:31:39.863Z,8.20
2019-02-06T13:32:44.092Z,8.10
2019-02-06T13:34:51.672Z,7.90
2019-02-06T13:38:02.656Z,8.20
2019-02-06T13:39:09.411Z,8.00
2019-02-06T13:40:16.852Z,8.10
2019-02-06T13:42:25.396Z,8.20
2019-02-06T13:43:29.510Z,8.10
2019-02-06T13:49:55.348Z,8.00
2019-02-06T13:51:00.065Z,8.10
2019-02-06T13:52:04.798Z,8.00
2019-02-06T13:55:16.724Z,8.10
2019-02-06T13:56:21.187Z,7.90
2019-02-06T13:57:33.400Z,8.00
2019-02-06T13:58:31.465Z,8.00
2019-02-06T14:01:44.059Z,8.00
2019-02-06T14:07:02.729Z,7.90
2019-02-06T14:08:10.120Z,8.20
2019-02-06T14:10:20.898Z,8.00
2019-02-06T14:12:29.384Z,7.90
2019-02-06T14:14:37.192Z,8.00
2019-02-06T14:16:47.019Z,7.80
2019-02-06T14:17:51.215Z,8.20
2019-02-06T14:18:55.349Z,8.10
2019-02-06T14:20:01.177Z,7.90
2019-02-06T14:23:16.326Z,8.10
2019-02-06T14:27:09.176Z,7.90
2019-02-06T14:30:03.261Z,8.00
2019-02-06T14:31:20.828Z,7.80
2019-02-06T14:37:15.208Z,7.80
2019-02-06T14:48:22.098Z,8.00
2019-02-06T14:56:14.034Z,7.90
2019-02-06T15:00:07.466Z,7.90
2019-02-06T15:02:42.777Z,8.00
2019-02-06T15:03:54.136Z,7.80
2019-02-06T15:06:30.030Z,7.70
2019-02-06T15:10:19.843Z,8.00
2019-02-06T15:13:58.207Z,7.80
2019-02-06T15:15:08.368Z,7.90
2019-02-06T15:16:31.632Z,7.70
2019-02-06T15:20:48.263Z,7.80
2019-02-06T15:23:09.998Z,7.70
2019-02-06T15:27:34.443Z,7.70
2019-02-06T15:34:01.475Z,7.70
2019-02-06T15:37:30.081Z,7.90
2019-02-06T15:41:34.453Z,7.50
2019-02-06T15:42:46.519Z,7.70
2019-02-06T15:49:24.581Z,7.70
2019-02-06T15:54:50.941Z,7.50
2019-02-06T16:01:56.047Z,7.60
2019-02-06T16:08:23.230Z,7.70
2019-02-06T16:09:38.369Z,7.60
2019-02-06T16:13:58.171Z,7.50
2019-02-06T16:18:11.586Z,7.40
2019-02-06T16:25:02.682Z,7.50
2019-02-06T16:26:11.223Z,7.70
2019-02-06T16:28:44.038Z,7.60
2019-02-06T16:31:31.513Z,7.40
2019-02-06T16:32:48.396Z,7.50
2019-02-06T16:34:15.116Z,7.50
2019-02-06T16:48:53.881Z,7.40
2019-02-06T16:50:03.700Z,7.20
2019-02-06T16:51:16.962Z,7.50
2019-02-06T17:02:22.282Z,7.50
2019-02-06T17:06:30.351Z,7.40
2019-02-06T17:09:04.204Z,7.50
2019-02-06T17:10:22.084Z,7.10
2019-02-06T17:14:26.056Z,7.30
2019-02-06T17:16:55.124Z,7.30
2019-02-06T17:21:58.226Z,7.20
2019-02-06T17:24:23.269Z,7.10
2019-02-06T17:31:03.445Z,7.30
2019-02-06T17:40:18.403Z,7.40
2019-02-06T17:41:46.848Z,7.50
2019-02-06T17:45:21.804Z,7.40
2019-02-06T17:47:56.573Z,7.20
2019-02-06T17:53:41.469Z,7.40
2019-02-06T17:56:00.497Z,7.20
2019-02-06T17:57:04.899Z,7.30
2019-02-06T18:00:28.354Z,7.40
2019-02-06T18:02:37.175Z,7.40
2019-02-06T18:03:43.346Z,7.20
2019-02-06T18:04:47.543Z,7.20
2019-02-06T18:05:51.703Z,7.40
2019-02-06T18:07:59.229Z,7.30
2019-02-06T18:09:06.933Z,7.20
2019-02-06T18:10:16.873Z,7.30
2019-02-06T18:11:21.018Z,7.10
2019-02-06T18:12:27.805Z,7.50
2019-02-06T18:15:39.369Z,7.40
2019-02-06T18:17:46.917Z,7.10
2019-02-06T18:18:51.052Z,7.20
2019-02-06T18:20:58.813Z,7.20
2019-02-06T18:22:05.508Z,7.40
2019-02-06T18:25:16.453Z,7.30
2019-02-06T18:26:20.851Z,7.20
2019-02-06T18:27:25.682Z,7.30
2019-02-06T18:29:33.471Z,7.10
2019-02-06T18:30:37.881Z,7.30
2019-02-06T18:32:45.661Z,7.30
2019-02-06T18:35:56.800Z,7.20
2019-02-06T18:37:01.191Z,7.40
2019-02-06T18:39:11.003Z,7.30
2019-02-06T18:40:16.723Z,7.30
2019-02-06T18:41:22.120Z,7.10
2019-02-06T18:42:36.683Z,7.40
2019-02-06T18:43:32.640Z,7.40
2019-02-06T18:45:41.455Z,7.40
2019-02-06T18:46:46.367Z,7.50
2019-02-06T18:47:57.860Z,7.40
2019-02-06T18:49:02.828Z,7.50
2019-02-06T18:51:14.884Z,7.20
2019-02-06T18:53:23.627Z,7.30
2019-02-06T18:55:31.387Z,7.30
2019-02-06T18:57:39.173Z,7.20
2019-02-06T18:59:46.989Z,7.40
2019-02-06T19:00:51.379Z,7.30
2019-02-06T19:03:00.394Z,7.30
2019-02-06T19:05:12.000Z,7.50
2019-02-06T19:06:18.971Z,7.30
2019-02-06T19:10:34.752Z,7.20
2019-02-06T19:12:48.010Z,7.30
2019-02-06T19:14:52.374Z,7.30
2019-02-06T19:18:07.456Z,7.20
2019-02-06T19:19:11.842Z,7.30
2019-02-06T19:21:20.757Z,7.40
2019-02-06T19:27:42.040Z,7.40
2019-02-06T19:28:46.424Z,7.40
2019-02-06T19:29:50.803Z,7.50
2019-02-06T19:30:55.660Z,7.50
2019-02-06T19:32:00.197Z,7.10
2019-02-06T19:33:04.801Z,7.20
2019-02-06T19:34:09.217Z,7.40
2019-02-06T19:35:13.618Z,7.40
2019-02-06T19:36:18.020Z,7.30
2019-02-06T19:39:30.123Z,7.30
2019-02-06T19:40:34.535Z,7.40
2019-02-06T19:43:45.678Z,7.20
2019-02-06T19:49:03.573Z,7.30
2019-02-06T19:50:16.830Z,7.40
2019-02-06T19:51:21.535Z,7.40
2019-02-06T19:53:29.503Z,7.40
2019-02-06T19:54:33.908Z,7.20
2019-02-06T19:55:38.857Z,7.20
2019-02-06T19:56:43.345Z,7.40
2019-02-06T19:57:47.823Z,7.50
2019-02-06T19:58:52.241Z,7.40
2019-02-06T19:59:56.761Z,7.30
2019-02-06T20:01:01.171Z,7.10
2019-02-06T20:02:06.616Z,7.40
2019-02-06T20:03:11.001Z,7.50
2019-02-06T20:04:16.073Z,7.50
2019-02-06T20:05:20.559Z,7.50
2019-02-06T20:06:25.181Z,7.30
2019-02-06T20:10:43.019Z,7.60
2019-02-06T20:12:50.776Z,7.40
2019-02-06T20:14:58.545Z,7.30
2019-02-06T20:17:06.320Z,7.40
2019-02-06T20:18:10.704Z,7.30
2019-02-06T20:19:15.119Z,7.30
2019-02-06T20:20:27.823Z,7.40
2019-02-06T20:21:32.214Z,7.30
2019-02-06T20:22:36.917Z,7.30
2019-02-06T20:23:41.356Z,7.40
2019-02-06T20:25:49.307Z,7.40
2019-02-06T20:30:10.056Z,7.30
2019-02-06T20:32:19.417Z,7.30
2019-02-06T20:34:27.597Z,7.40
2019-02-06T20:37:38.761Z,7.50
2019-02-06T20:38:43.169Z,7.30
2019-02-06T20:39:47.584Z,7.40
2019-02-06T20:42:59.537Z,7.50
2019-02-06T20:44:04.943Z,7.20
2019-02-06T20:45:10.789Z,7.30
2019-02-06T20:46:15.302Z,7.40
2019-02-06T20:48:23.845Z,7.30
2019-02-06T20:53:44.101Z,7.50
2019-02-06T20:55:51.905Z,7.30
2019-02-06T20:56:56.305Z,7.40
2019-02-06T20:58:01.717Z,7.50
2019-02-06T20:59:07.129Z,7.40
2019-02-06T21:00:21.718Z,7.50
2019-02-06T21:02:30.351Z,7.30
2019-02-06T21:04:38.684Z,7.30
2019-02-06T21:06:46.453Z,7.30
2019-02-06T21:07:50.850Z,7.40
2019-02-06T21:09:58.917Z,7.30
2019-02-06T21:11:03.456Z,7.50
2019-02-06T21:12:07.873Z,7.40
2019-02-06T21:14:16.071Z,7.50
2019-02-06T21:16:23.968Z,7.30
2019-02-06T21:17:28.381Z,7.50
2019-02-06T21:20:39.547Z,7.30
2019-02-06T21:24:54.041Z,7.30
2019-02-06T21:25:58.445Z,7.30
2019-02-06T21:27:02.863Z,7.60
2019-02-06T21:28:08.839Z,7.40
2019-02-06T21:29:13.239Z,7.50
2019-02-06T21:32:27.691Z,7.50
2019-02-06T21:33:32.200Z,7.40
2019-02-06T21:35:39.977Z,7.40
2019-02-06T21:39:54.542Z,7.60
2019-02-06T21:40:58.935Z,7.30
2019-02-06T21:49:27.368Z,7.40
2019-02-06T21:50:31.887Z,7.60
2019-02-06T21:51:36.396Z,7.40
2019-02-06T21:54:48.869Z,7.40
2019-02-06T21:56:56.758Z,7.60
2019-02-06T21:59:04.597Z,7.60
2019-02-06T22:00:16.809Z,7.70
2019-02-06T22:01:21.213Z,7.50
2019-02-06T22:02:25.707Z,7.60
2019-02-06T22:03:30.125Z,7.50
2019-02-06T22:04:34.641Z,7.50
2019-02-06T22:05:39.146Z,7.50
2019-02-06T22:08:50.959Z,7.30
2019-02-06T22:10:59.026Z,7.50
2019-02-06T22:12:03.423Z,7.50
2019-02-06T22:13:07.900Z,7.20
2019-02-06T22:16:22.008Z,7.50
2019-02-06T22:17:28.431Z,7.40
2019-02-06T22:18:32.659Z,7.50
2019-02-06T22:19:37.084Z,7.50
2019-02-06T22:20:41.496Z,7.60
2019-02-06T22:22:49.541Z,7.60
2019-02-06T22:24:57.316Z,7.40
2019-02-06T22:27:05.091Z,7.40
2019-02-06T22:28:09.489Z,7.10
2019-02-06T22:31:23.685Z,7.70
2019-02-06T22:32:28.854Z,7.50
2019-02-06T22:33:33.262Z,7.50
2019-02-06T22:35:41.071Z,7.60
2019-02-06T22:36:45.468Z,7.50
2019-02-06T22:37:49.901Z,7.40
2019-02-06T22:39:57.689Z,7.50
2019-02-06T22:42:05.275Z,7.30
2019-02-06T22:43:10.095Z,7.40
2019-02-06T22:44:14.494Z,7.40
2019-02-06T22:45:21.525Z,7.70
2019-02-06T22:46:25.998Z,7.50
2019-02-06T22:47:30.397Z,7.50
2019-02-06T22:50:41.585Z,7.40
2019-02-06T22:51:46.075Z,7.40
2019-02-06T22:52:50.477Z,7.50
2019-02-06T22:53:54.867Z,7.70
2019-02-06T23:00:24.233Z,7.50
2019-02-06T23:04:40.845Z,7.50
2019-02-06T23:05:45.252Z,7.50
2019-02-06T23:07:52.917Z,7.50
2019-02-06T23:12:07.451Z,7.60
2019-02-06T23:14:18.202Z,7.60
2019-02-06T23:16:24.831Z,7.60
2019-02-06T23:17:30.280Z,7.60
2019-02-06T23:18:35.222Z,7.40
2019-02-06T23:21:46.479Z,7.60
2019-02-06T23:22:50.692Z,7.70
2019-02-06T23:23:54.897Z,7.50
2019-02-06T23:24:59.305Z,7.50
2019-02-06T23:26:04.476Z,7.60
2019-02-06T23:27:09.966Z,7.60
2019-02-06T23:29:18.281Z,7.60
2019-02-06T23:31:25.812Z,7.70
2019-02-06T23:33:33.890Z,7.60
2019-02-06T23:34:38.058Z,7.40
2019-02-06T23:45:14.584Z,7.50
2019-02-06T23:46:19.208Z,7.70
2019-02-06T23:47:24.002Z,7.50
2019-02-06T23:48:28.429Z,7.60
2019-02-06T23:51:39.617Z,7.70
2019-02-06T23:53:47.139Z,7.60
2019-02-06T23:56:58.782Z,7.50
